FQPBFQNC

Guest
Details From FQPB - PEMBA
To FQNC - NACALA
Flight Number -
Tags generated
Created
Modified
Stats Distance 96 nm / 177 km
Max Altitude 900 ft / 274 m
Waypoints 3
Social Downloads 1
Likes 0
Share

Download

Looking for another format? Having issues loading an existing format? Contact us
Advertisement - Login to hide

Notes

Basic altitude profile: - Ascent Rate: 2500ft/min - Ascent Speed: 250kts - Cruise Altitude: 35000ft - Cruise Speed: 420kts - Descent Rate: 1500ft/min - Descent Speed: 250kts Options: - Use NATs: yes - Use PACOTS: yes - Use low airways: yes - Use high airways: yes

Route

FQPB PB FQNC

ID Type Via Altitude (ft/m) Position (lat/lon) Dist (leg/tot) Name
O FQPB APT - 0 / 0 -12.99025 / 40.52272 - / 0 nm PEMBA
PB NDB - 900 / 274 -12.95153 / 40.50092 2 / 2 nm PEMBA NDB
O FQNC APT - 0 / 0 -14.48823 / 40.71225 93 / 95 nm NACALA

Altitude Profile

Advertisement - Login to hide

FQPB

Details ICAO FQPB (POL)
Name Pemba
Region Mozambique
Timezone Africa/Maputo (UTC+2.0)
Stats Elevation 331 ft / 101 m (AMSL)
Location -12.990200° 40.522800°
Runways 2
Magnetic Variation 6.832° W

METAR

FQPB 270400Z 20006KT 9999 FEW020 21/20 Q1018

Decode

TAF

TAF FQPB 262200Z 2700/2724 14010KT 9999 FEW020 TX29/2713Z TN22/2703Z BECMG 2704/2706 23010KT BECMG 2712/2714 17010KT

Decode

Departure Runways

ID Width Length Bearing (true/mag) Surface Threshold Overrun Markings Lighting
08 98 ft / 30 m 2,631 ft / 802 m 76.61° / 83.45° CONCRETE 0 ft / 0 m 0 ft / 0 m VISUAL
17 148 ft / 45 m 5,935 ft / 1,809 m 160.87° / 167.70° ASPHALT 0 ft / 0 m 0 ft / 0 m PREC-APP EDGE THRESHOLD ALSF-I
26 98 ft / 30 m 2,631 ft / 802 m 256.61° / 263.44° CONCRETE 0 ft / 0 m 0 ft / 0 m VISUAL
35 148 ft / 45 m 5,935 ft / 1,809 m 340.87° / 347.70° ASPHALT 0 ft / 0 m 0 ft / 0 m PREC-APP EDGE THRESHOLD MALS

FQNC

Details ICAO FQNC (MNC)
Name Nacala Intl
Region Mozambique
Timezone Africa/Maputo (UTC+2.0)
Stats Elevation 398 ft / 121 m (AMSL)
Location -14.486400° 40.712400°
Runways 1
Magnetic Variation 8.311° W

METAR

Not found

TAF

TAF FQNC 262200Z 2700/2806 17010KT 9999 FEW020 TX30/2713Z TN20/2703Z BECMG 2704/2706 23005KT BECMG 2712/2714 16010KT BECMG 2718/2720 23012KT

Decode

Destination Runways

ID Width Length Bearing (true/mag) Surface Threshold Overrun Markings Lighting
01 148 ft / 45 m 10,213 ft / 3,113 m 4.60° / 12.91° ASPHALT 0 ft / 0 m 200 ft / 61 m PREC-APP CENTERLINE EDGE THRESHOLD
19 148 ft / 45 m 10,213 ft / 3,113 m 184.60° / 192.91° ASPHALT 0 ft / 0 m 200 ft / 61 m PREC-APP CENTERLINE EDGE THRESHOLD ALSF-I

Approach Navaids

Runway Type Ident Frequency Range Bearing (true/mag) Slope Elevation
19 LOC-ILS NC 110.30 MHz 18 nm / 33 km 184.60° / 192.91 ° - 398 ft / 121 m (AMSL)
19 GS NC 110.30 MHz 10 nm / 19 km 184.60° / 192.91 ° 3.00° 398 ft / 121 m (AMSL)

Popular Alternatives